sensor_id;sensor_type;location;lat;lon;timestamp;temperature;humidity
3976;DHT22;2002;48.812;9.180;2023-04-23T00:01:26;17.60;1.00
3976;DHT22;2002;48.812;9.180;2023-04-23T00:03:55;17.70;1.00
3976;DHT22;2002;48.812;9.180;2023-04-23T00:06:22;17.70;1.00
3976;DHT22;2002;48.812;9.180;2023-04-23T00:08:52;17.60;1.00
3976;DHT22;2002;48.812;9.180;2023-04-23T00:11:18;17.60;1.00
3976;DHT22;2002;48.812;9.180;2023-04-23T00:13:44;17.60;1.00
3976;DHT22;2002;48.812;9.180;2023-04-23T00:16:12;17.50;1.00
3976;DHT22;2002;48.812;9.180;2023-04-23T00:18:38;17.50;1.00
3976;DHT22;2002;48.812;9.180;2023-04-23T00:21:03;17.40;1.00
3976;DHT22;2002;48.812;9.180;2023-04-23T00:23:29;17.40;1.00
3976;DHT22;2002;48.812;9.180;2023-04-23T00:25:55;17.40;1.00
3976;DHT22;2002;48.812;9.180;2023-04-23T00:28:20;17.30;1.00
3976;DHT22;2002;48.812;9.180;2023-04-23T00:30:46;17.30;1.00
3976;DHT22;2002;48.812;9.180;2023-04-23T00:33:11;17.30;1.00
3976;DHT22;2002;48.812;9.180;2023-04-23T00:35:37;17.20;1.00
3976;DHT22;2002;48.812;9.180;2023-04-23T00:38:03;17.20;1.00
3976;DHT22;2002;48.812;9.180;2023-04-23T00:40:29;17.20;1.00
3976;DHT22;2002;48.812;9.180;2023-04-23T00:42:55;17.20;1.00
3976;DHT22;2002;48.812;9.180;2023-04-23T00:45:23;17.20;1.00
3976;DHT22;2002;48.812;9.180;2023-04-23T00:47:48;17.10;1.00
3976;DHT22;2002;48.812;9.180;2023-04-23T00:50:14;17.10;1.00
3976;DHT22;2002;48.812;9.180;2023-04-23T00:52:40;17.10;1.00
3976;DHT22;2002;48.812;9.180;2023-04-23T00:55:06;17.10;1.00
3976;DHT22;2002;48.812;9.180;2023-04-23T00:57:34;17.10;1.00
3976;DHT22;2002;48.812;9.180;2023-04-23T01:00:00;17.00;1.00
3976;DHT22;2002;48.812;9.180;2023-04-23T01:02:26;17.00;1.00
3976;DHT22;2002;48.812;9.180;2023-04-23T01:04:54;17.00;1.00
3976;DHT22;2002;48.812;9.180;2023-04-23T01:07:20;17.00;1.00
3976;DHT22;2002;48.812;9.180;2023-04-23T01:09:47;17.00;1.00
3976;DHT22;2002;48.812;9.180;2023-04-23T01:12:14;17.00;1.00
3976;DHT22;2002;48.812;9.180;2023-04-23T01:14:40;17.00;1.00
3976;DHT22;2002;48.812;9.180;2023-04-23T01:17:07;17.00;1.00
3976;DHT22;2002;48.812;9.180;2023-04-23T01:19:34;17.00;1.00
3976;DHT22;2002;48.812;9.180;2023-04-23T01:22:00;17.00;1.00
3976;DHT22;2002;48.812;9.180;2023-04-23T01:24:27;17.00;1.00
3976;DHT22;2002;48.812;9.180;2023-04-23T01:26:53;17.00;1.00
3976;DHT22;2002;48.812;9.180;2023-04-23T01:29:20;17.00;1.00
3976;DHT22;2002;48.812;9.180;2023-04-23T01:31:46;17.00;1.00
3976;DHT22;2002;48.812;9.180;2023-04-23T01:34:13;17.00;1.00
3976;DHT22;2002;48.812;9.180;2023-04-23T01:36:39;17.00;1.00
3976;DHT22;2002;48.812;9.180;2023-04-23T01:39:06;17.00;1.00
3976;DHT22;2002;48.812;9.180;2023-04-23T01:41:32;17.00;1.00
3976;DHT22;2002;48.812;9.180;2023-04-23T01:43:59;17.00;1.00
3976;DHT22;2002;48.812;9.180;2023-04-23T01:46:25;17.00;1.00
3976;DHT22;2002;48.812;9.180;2023-04-23T01:48:51;17.10;1.00
3976;DHT22;2002;48.812;9.180;2023-04-23T01:51:16;17.30;1.00
3976;DHT22;2002;48.812;9.180;2023-04-23T01:53:42;17.50;1.00
3976;DHT22;2002;48.812;9.180;2023-04-23T01:56:08;17.70;1.00
3976;DHT22;2002;48.812;9.180;2023-04-23T01:58:34;17.90;1.00
3976;DHT22;2002;48.812;9.180;2023-04-23T02:01:00;17.90;1.00
3976;DHT22;2002;48.812;9.180;2023-04-23T02:03:27;17.90;1.00
3976;DHT22;2002;48.812;9.180;2023-04-23T02:05:54;17.90;1.00
3976;DHT22;2002;48.812;9.180;2023-04-23T02:08:20;17.80;1.00
3976;DHT22;2002;48.812;9.180;2023-04-23T02:10:46;17.80;1.00
3976;DHT22;2002;48.812;9.180;2023-04-23T02:13:12;17.70;1.00
3976;DHT22;2002;48.812;9.180;2023-04-23T02:15:37;17.70;1.00
3976;DHT22;2002;48.812;9.180;2023-04-23T02:18:03;17.60;1.00
3976;DHT22;2002;48.812;9.180;2023-04-23T02:20:29;17.50;1.00
3976;DHT22;2002;48.812;9.180;2023-04-23T02:22:54;17.50;1.00
3976;DHT22;2002;48.812;9.180;2023-04-23T02:25:21;17.50;1.00
3976;DHT22;2002;48.812;9.180;2023-04-23T02:27:47;17.40;1.00
3976;DHT22;2002;48.812;9.180;2023-04-23T02:30:13;17.40;1.00
3976;DHT22;2002;48.812;9.180;2023-04-23T02:32:39;17.40;1.00
3976;DHT22;2002;48.812;9.180;2023-04-23T02:35:06;17.30;1.00
3976;DHT22;2002;48.812;9.180;2023-04-23T02:37:33;17.30;1.00
3976;DHT22;2002;48.812;9.180;2023-04-23T02:39:59;17.30;1.00
3976;DHT22;2002;48.812;9.180;2023-04-23T02:42:25;17.20;1.00
3976;DHT22;2002;48.812;9.180;2023-04-23T02:44:51;17.20;1.00
3976;DHT22;2002;48.812;9.180;2023-04-23T02:47:17;17.20;1.00
3976;DHT22;2002;48.812;9.180;2023-04-23T02:49:42;17.20;1.00
3976;DHT22;2002;48.812;9.180;2023-04-23T02:52:08;17.20;1.00
3976;DHT22;2002;48.812;9.180;2023-04-23T02:54:33;17.20;1.00
3976;DHT22;2002;48.812;9.180;2023-04-23T02:57:01;17.10;1.00
3976;DHT22;2002;48.812;9.180;2023-04-23T02:59:27;17.10;1.00
3976;DHT22;2002;48.812;9.180;2023-04-23T03:01:53;17.10;1.00
3976;DHT22;2002;48.812;9.180;2023-04-23T03:04:19;17.10;1.00
3976;DHT22;2002;48.812;9.180;2023-04-23T03:06:45;17.10;1.00
3976;DHT22;2002;48.812;9.180;2023-04-23T03:09:10;17.10;1.00
3976;DHT22;2002;48.812;9.180;2023-04-23T03:11:37;17.00;1.00
3976;DHT22;2002;48.812;9.180;2023-04-23T03:14:02;17.10;1.00
3976;DHT22;2002;48.812;9.180;2023-04-23T03:16:29;17.00;1.00
3976;DHT22;2002;48.812;9.180;2023-04-23T03:18:55;17.10;1.00
3976;DHT22;2002;48.812;9.180;2023-04-23T03:21:21;17.10;1.00
3976;DHT22;2002;48.812;9.180;2023-04-23T03:23:47;17.00;1.00
3976;DHT22;2002;48.812;9.180;2023-04-23T03:26:12;17.10;1.00
3976;DHT22;2002;48.812;9.180;2023-04-23T03:28:38;17.00;1.00
3976;DHT22;2002;48.812;9.180;2023-04-23T03:31:03;17.00;1.00
3976;DHT22;2002;48.812;9.180;2023-04-23T03:33:29;17.00;1.00
3976;DHT22;2002;48.812;9.180;2023-04-23T03:35:55;17.00;1.00
3976;DHT22;2002;48.812;9.180;2023-04-23T03:38:20;17.00;1.00
3976;DHT22;2002;48.812;9.180;2023-04-23T03:40:46;17.00;1.00
3976;DHT22;2002;48.812;9.180;2023-04-23T03:43:11;17.00;1.00
3976;DHT22;2002;48.812;9.180;2023-04-23T03:45:37;17.00;1.00
3976;DHT22;2002;48.812;9.180;2023-04-23T03:48:02;17.00;1.00
3976;DHT22;2002;48.812;9.180;2023-04-23T03:50:28;17.00;1.00
3976;DHT22;2002;48.812;9.180;2023-04-23T03:52:54;17.00;1.00
3976;DHT22;2002;48.812;9.180;2023-04-23T03:55:19;17.00;1.00
3976;DHT22;2002;48.812;9.180;2023-04-23T03:57:45;17.10;1.00
3976;DHT22;2002;48.812;9.180;2023-04-23T04:00:11;17.20;1.00
3976;DHT22;2002;48.812;9.180;2023-04-23T04:02:37;17.40;1.00
3976;DHT22;2002;48.812;9.180;2023-04-23T04:05:04;17.60;1.00
3976;DHT22;2002;48.812;9.180;2023-04-23T04:07:30;17.70;1.00
3976;DHT22;2002;48.812;9.180;2023-04-23T04:09:56;17.70;1.00
3976;DHT22;2002;48.812;9.180;2023-04-23T04:12:21;17.80;1.00
3976;DHT22;2002;48.812;9.180;2023-04-23T04:14:47;17.80;1.00
3976;DHT22;2002;48.812;9.180;2023-04-23T04:17:12;17.70;1.00
3976;DHT22;2002;48.812;9.180;2023-04-23T04:19:40;17.70;1.00
3976;DHT22;2002;48.812;9.180;2023-04-23T04:22:06;17.60;1.00
3976;DHT22;2002;48.812;9.180;2023-04-23T04:24:32;17.60;1.00
3976;DHT22;2002;48.812;9.180;2023-04-23T04:26:58;17.50;1.00
3976;DHT22;2002;48.812;9.180;2023-04-23T04:29:27;17.50;1.00
3976;DHT22;2002;48.812;9.180;2023-04-23T04:31:53;17.40;1.00
3976;DHT22;2002;48.812;9.180;2023-04-23T04:34:19;17.40;1.00
3976;DHT22;2002;48.812;9.180;2023-04-23T04:36:45;17.40;1.00
3976;DHT22;2002;48.812;9.180;2023-04-23T04:39:11;17.40;1.00
3976;DHT22;2002;48.812;9.180;2023-04-23T04:41:38;17.30;1.00
3976;DHT22;2002;48.812;9.180;2023-04-23T04:44:05;17.30;1.00
3976;DHT22;2002;48.812;9.180;2023-04-23T04:46:31;17.30;1.00
3976;DHT22;2002;48.812;9.180;2023-04-23T04:48:58;17.20;1.00
3976;DHT22;2002;48.812;9.180;2023-04-23T04:51:23;17.20;1.00
3976;DHT22;2002;48.812;9.180;2023-04-23T04:53:49;17.20;1.00
3976;DHT22;2002;48.812;9.180;2023-04-23T04:56:14;17.20;1.00
3976;DHT22;2002;48.812;9.180;2023-04-23T04:58:40;17.20;1.00
3976;DHT22;2002;48.812;9.180;2023-04-23T05:01:06;17.20;1.00
3976;DHT22;2002;48.812;9.180;2023-04-23T05:03:32;17.10;1.00
3976;DHT22;2002;48.812;9.180;2023-04-23T05:05:57;17.10;1.00
3976;DHT22;2002;48.812;9.180;2023-04-23T05:08:23;17.10;1.00
3976;DHT22;2002;48.812;9.180;2023-04-23T05:10:49;17.10;1.00
3976;DHT22;2002;48.812;9.180;2023-04-23T05:13:16;17.10;1.00
3976;DHT22;2002;48.812;9.180;2023-04-23T05:15:41;17.10;1.00
3976;DHT22;2002;48.812;9.180;2023-04-23T05:18:09;17.10;1.00
3976;DHT22;2002;48.812;9.180;2023-04-23T05:20:35;17.10;1.00
3976;DHT22;2002;48.812;9.180;2023-04-23T05:23:00;17.10;1.00
3976;DHT22;2002;48.812;9.180;2023-04-23T05:25:28;17.10;1.00
3976;DHT22;2002;48.812;9.180;2023-04-23T05:27:53;17.10;1.00
3976;DHT22;2002;48.812;9.180;2023-04-23T05:30:19;17.10;1.00
3976;DHT22;2002;48.812;9.180;2023-04-23T05:32:45;17.10;1.00
3976;DHT22;2002;48.812;9.180;2023-04-23T05:35:10;17.00;1.00
3976;DHT22;2002;48.812;9.180;2023-04-23T05:37:36;17.10;1.00
3976;DHT22;2002;48.812;9.180;2023-04-23T05:40:01;17.10;1.00
3976;DHT22;2002;48.812;9.180;2023-04-23T05:42:29;17.00;1.00
3976;DHT22;2002;48.812;9.180;2023-04-23T05:44:54;17.00;1.00
3976;DHT22;2002;48.812;9.180;2023-04-23T05:47:20;17.00;1.00
3976;DHT22;2002;48.812;9.180;2023-04-23T05:49:45;17.00;1.00
3976;DHT22;2002;48.812;9.180;2023-04-23T05:52:11;17.00;1.00
3976;DHT22;2002;48.812;9.180;2023-04-23T05:54:37;17.00;1.00
3976;DHT22;2002;48.812;9.180;2023-04-23T05:57:03;17.00;1.00
3976;DHT22;2002;48.812;9.180;2023-04-23T05:59:30;17.00;1.00
3976;DHT22;2002;48.812;9.180;2023-04-23T06:01:55;17.00;1.00
3976;DHT22;2002;48.812;9.180;2023-04-23T06:04:21;17.10;1.00
3976;DHT22;2002;48.812;9.180;2023-04-23T06:06:46;17.10;1.00
3976;DHT22;2002;48.812;9.180;2023-04-23T06:09:12;17.20;1.00
3976;DHT22;2002;48.812;9.180;2023-04-23T06:11:37;17.40;1.00
3976;DHT22;2002;48.812;9.180;2023-04-23T06:14:04;17.60;1.00
3976;DHT22;2002;48.812;9.180;2023-04-23T06:16:29;17.70;1.00
3976;DHT22;2002;48.812;9.180;2023-04-23T06:18:55;17.80;1.00
3976;DHT22;2002;48.812;9.180;2023-04-23T06:21:21;17.80;1.00
3976;DHT22;2002;48.812;9.180;2023-04-23T06:23:47;17.80;1.00
3976;DHT22;2002;48.812;9.180;2023-04-23T06:26:13;17.70;1.00
3976;DHT22;2002;48.812;9.180;2023-04-23T06:28:44;17.70;1.00
3976;DHT22;2002;48.812;9.180;2023-04-23T06:31:10;17.60;1.00
3976;DHT22;2002;48.812;9.180;2023-04-23T06:33:36;17.60;1.00
3976;DHT22;2002;48.812;9.180;2023-04-23T06:36:06;17.50;1.00
3976;DHT22;2002;48.812;9.180;2023-04-23T06:38:33;17.50;1.00
3976;DHT22;2002;48.812;9.180;2023-04-23T06:40:59;17.40;1.00
3976;DHT22;2002;48.812;9.180;2023-04-23T06:43:24;17.40;1.00
3976;DHT22;2002;48.812;9.180;2023-04-23T06:45:50;17.40;1.00
3976;DHT22;2002;48.812;9.180;2023-04-23T06:48:16;17.30;1.00
3976;DHT22;2002;48.812;9.180;2023-04-23T06:50:43;17.30;1.00
3976;DHT22;2002;48.812;9.180;2023-04-23T06:53:09;17.30;1.00
3976;DHT22;2002;48.812;9.180;2023-04-23T06:55:34;17.30;1.00
3976;DHT22;2002;48.812;9.180;2023-04-23T06:58:00;17.30;1.00
3976;DHT22;2002;48.812;9.180;2023-04-23T07:00:26;17.20;1.00
3976;DHT22;2002;48.812;9.180;2023-04-23T07:02:51;17.20;1.00
3976;DHT22;2002;48.812;9.180;2023-04-23T07:05:17;17.20;1.00
3976;DHT22;2002;48.812;9.180;2023-04-23T07:07:43;17.20;1.00
3976;DHT22;2002;48.812;9.180;2023-04-23T07:10:12;17.20;1.00
3976;DHT22;2002;48.812;9.180;2023-04-23T07:12:38;17.20;1.00
3976;DHT22;2002;48.812;9.180;2023-04-23T07:15:04;17.20;1.00
3976;DHT22;2002;48.812;9.180;2023-04-23T07:17:31;17.10;1.00
3976;DHT22;2002;48.812;9.180;2023-04-23T07:19:57;17.10;1.00
3976;DHT22;2002;48.812;9.180;2023-04-23T07:22:25;17.10;1.00
3976;DHT22;2002;48.812;9.180;2023-04-23T07:24:51;17.10;1.00
3976;DHT22;2002;48.812;9.180;2023-04-23T07:27:17;17.10;1.00
3976;DHT22;2002;48.812;9.180;2023-04-23T07:29:43;17.10;1.00
3976;DHT22;2002;48.812;9.180;2023-04-23T07:32:09;17.10;1.00
3976;DHT22;2002;48.812;9.180;2023-04-23T07:34:34;17.10;1.00
3976;DHT22;2002;48.812;9.180;2023-04-23T07:37:03;17.10;1.00
3976;DHT22;2002;48.812;9.180;2023-04-23T07:39:29;17.10;1.00
3976;DHT22;2002;48.812;9.180;2023-04-23T07:41:54;17.10;1.00
3976;DHT22;2002;48.812;9.180;2023-04-23T07:44:21;17.00;1.00
3976;DHT22;2002;48.812;9.180;2023-04-23T07:46:46;17.00;1.00
3976;DHT22;2002;48.812;9.180;2023-04-23T07:49:12;17.00;1.00
3976;DHT22;2002;48.812;9.180;2023-04-23T07:51:38;17.00;1.00
3976;DHT22;2002;48.812;9.180;2023-04-23T07:54:04;17.00;1.00
3976;DHT22;2002;48.812;9.180;2023-04-23T07:56:29;17.00;1.00
3976;DHT22;2002;48.812;9.180;2023-04-23T07:58:57;17.00;1.00
3976;DHT22;2002;48.812;9.180;2023-04-23T08:01:23;17.00;1.00
3976;DHT22;2002;48.812;9.180;2023-04-23T08:03:48;17.00;1.00
3976;DHT22;2002;48.812;9.180;2023-04-23T08:06:14;17.00;1.00
3976;DHT22;2002;48.812;9.180;2023-04-23T08:08:39;17.00;1.00
3976;DHT22;2002;48.812;9.180;2023-04-23T08:11:06;17.10;1.00
3976;DHT22;2002;48.812;9.180;2023-04-23T08:13:32;17.00;1.00
3976;DHT22;2002;48.812;9.180;2023-04-23T08:15:57;17.00;1.00
3976;DHT22;2002;48.812;9.180;2023-04-23T08:18:23;17.10;1.00
3976;DHT22;2002;48.812;9.180;2023-04-23T08:20:49;17.20;1.00
3976;DHT22;2002;48.812;9.180;2023-04-23T08:23:15;17.40;1.00
3976;DHT22;2002;48.812;9.180;2023-04-23T08:25:41;17.50;1.00
3976;DHT22;2002;48.812;9.180;2023-04-23T08:28:07;17.60;1.00
3976;DHT22;2002;48.812;9.180;2023-04-23T08:30:32;17.70;1.00
3976;DHT22;2002;48.812;9.180;2023-04-23T08:32:58;17.70;1.00
3976;DHT22;2002;48.812;9.180;2023-04-23T08:35:23;17.70;1.00
3976;DHT22;2002;48.812;9.180;2023-04-23T08:37:49;17.70;1.00
3976;DHT22;2002;48.812;9.180;2023-04-23T08:40:15;17.60;1.00
3976;DHT22;2002;48.812;9.180;2023-04-23T08:42:56;17.60;1.00
3976;DHT22;2002;48.812;9.180;2023-04-23T08:45:23;17.60;1.00
3976;DHT22;2002;48.812;9.180;2023-04-23T08:47:49;17.50;1.00
3976;DHT22;2002;48.812;9.180;2023-04-23T08:50:16;17.40;1.00
3976;DHT22;2002;48.812;9.180;2023-04-23T08:52:56;17.40;1.00
3976;DHT22;2002;48.812;9.180;2023-04-23T08:55:22;17.40;1.00
3976;DHT22;2002;48.812;9.180;2023-04-23T08:57:49;17.40;1.00
3976;DHT22;2002;48.812;9.180;2023-04-23T09:00:16;17.30;1.00
3976;DHT22;2002;48.812;9.180;2023-04-23T09:02:46;17.30;1.00
3976;DHT22;2002;48.812;9.180;2023-04-23T09:05:12;17.40;1.00
3976;DHT22;2002;48.812;9.180;2023-04-23T09:07:38;17.40;1.00
3976;DHT22;2002;48.812;9.180;2023-04-23T09:10:06;17.40;1.00
3976;DHT22;2002;48.812;9.180;2023-04-23T09:12:34;17.40;1.00
3976;DHT22;2002;48.812;9.180;2023-04-23T09:15:01;17.40;1.00
3976;DHT22;2002;48.812;9.180;2023-04-23T09:17:28;17.40;1.00
3976;DHT22;2002;48.812;9.180;2023-04-23T09:19:54;17.40;1.00
3976;DHT22;2002;48.812;9.180;2023-04-23T09:22:42;17.30;1.00
3976;DHT22;2002;48.812;9.180;2023-04-23T09:25:10;17.30;1.00
3976;DHT22;2002;48.812;9.180;2023-04-23T09:27:36;17.30;1.00
3976;DHT22;2002;48.812;9.180;2023-04-23T09:30:04;17.40;1.00
3976;DHT22;2002;48.812;9.180;2023-04-23T09:32:36;17.50;1.00
3976;DHT22;2002;48.812;9.180;2023-04-23T09:35:03;17.50;1.00
3976;DHT22;2002;48.812;9.180;2023-04-23T09:37:30;17.50;1.00
3976;DHT22;2002;48.812;9.180;2023-04-23T09:39:59;17.50;1.00
3976;DHT22;2002;48.812;9.180;2023-04-23T09:42:26;17.50;1.00
3976;DHT22;2002;48.812;9.180;2023-04-23T09:44:56;17.50;1.00
3976;DHT22;2002;48.812;9.180;2023-04-23T09:47:22;17.50;1.00
3976;DHT22;2002;48.812;9.180;2023-04-23T09:49:49;17.50;1.00
3976;DHT22;2002;48.812;9.180;2023-04-23T09:52:15;17.50;1.00
3976;DHT22;2002;48.812;9.180;2023-04-23T09:54:42;17.50;1.00
3976;DHT22;2002;48.812;9.180;2023-04-23T09:57:07;17.50;1.00
3976;DHT22;2002;48.812;9.180;2023-04-23T09:59:34;17.50;1.00
3976;DHT22;2002;48.812;9.180;2023-04-23T10:02:05;17.50;1.00
3976;DHT22;2002;48.812;9.180;2023-04-23T10:04:32;17.50;1.00
3976;DHT22;2002;48.812;9.180;2023-04-23T10:07:03;17.50;1.00
3976;DHT22;2002;48.812;9.180;2023-04-23T10:09:30;17.50;1.00
3976;DHT22;2002;48.812;9.180;2023-04-23T10:11:57;17.50;1.00
3976;DHT22;2002;48.812;9.180;2023-04-23T10:14:25;17.50;1.00
3976;DHT22;2002;48.812;9.180;2023-04-23T10:16:57;17.60;1.00
3976;DHT22;2002;48.812;9.180;2023-04-23T10:19:24;17.60;1.00
3976;DHT22;2002;48.812;9.180;2023-04-23T10:22:00;17.60;1.00
3976;DHT22;2002;48.812;9.180;2023-04-23T10:24:37;17.60;1.00
3976;DHT22;2002;48.812;9.180;2023-04-23T10:27:09;17.60;1.00
3976;DHT22;2002;48.812;9.180;2023-04-23T10:29:35;17.60;1.00
3976;DHT22;2002;48.812;9.180;2023-04-23T10:32:03;17.50;1.00
3976;DHT22;2002;48.812;9.180;2023-04-23T10:34:30;17.50;1.00
3976;DHT22;2002;48.812;9.180;2023-04-23T10:36:57;17.40;1.00
3976;DHT22;2002;48.812;9.180;2023-04-23T10:39:31;17.40;1.00
3976;DHT22;2002;48.812;9.180;2023-04-23T10:41:58;17.50;1.00
3976;DHT22;2002;48.812;9.180;2023-04-23T10:44:32;17.50;1.00
3976;DHT22;2002;48.812;9.180;2023-04-23T10:46:58;17.50;1.00
3976;DHT22;2002;48.812;9.180;2023-04-23T10:49:29;17.50;1.00
3976;DHT22;2002;48.812;9.180;2023-04-23T10:52:03;17.50;1.00
3976;DHT22;2002;48.812;9.180;2023-04-23T10:54:30;17.50;1.00
3976;DHT22;2002;48.812;9.180;2023-04-23T10:57:00;17.50;1.00
3976;DHT22;2002;48.812;9.180;2023-04-23T10:59:28;17.50;1.00
3976;DHT22;2002;48.812;9.180;2023-04-23T11:01:56;17.50;1.00
3976;DHT22;2002;48.812;9.180;2023-04-23T11:04:27;17.50;1.00
3976;DHT22;2002;48.812;9.180;2023-04-23T11:09:36;17.50;1.00
3976;DHT22;2002;48.812;9.180;2023-04-23T11:12:05;17.50;1.00
3976;DHT22;2002;48.812;9.180;2023-04-23T11:14:44;17.50;1.00
3976;DHT22;2002;48.812;9.180;2023-04-23T11:17:11;17.50;1.00
3976;DHT22;2002;48.812;9.180;2023-04-23T11:19:38;17.50;1.00
3976;DHT22;2002;48.812;9.180;2023-04-23T11:22:15;17.50;1.00
3976;DHT22;2002;48.812;9.180;2023-04-23T11:24:45;17.40;1.00
3976;DHT22;2002;48.812;9.180;2023-04-23T11:27:16;17.40;1.00
3976;DHT22;2002;48.812;9.180;2023-04-23T11:29:44;17.30;1.00
3976;DHT22;2002;48.812;9.180;2023-04-23T11:32:11;17.30;1.00
3976;DHT22;2002;48.812;9.180;2023-04-23T11:34:43;17.40;1.00
3976;DHT22;2002;48.812;9.180;2023-04-23T11:37:10;17.40;1.00
3976;DHT22;2002;48.812;9.180;2023-04-23T11:39:36;17.40;1.00
3976;DHT22;2002;48.812;9.180;2023-04-23T11:42:01;17.40;1.00
3976;DHT22;2002;48.812;9.180;2023-04-23T11:44:28;17.40;1.00
3976;DHT22;2002;48.812;9.180;2023-04-23T11:46:55;17.40;1.00
3976;DHT22;2002;48.812;9.180;2023-04-23T11:49:23;17.40;1.00
3976;DHT22;2002;48.812;9.180;2023-04-23T11:51:49;17.50;1.00
3976;DHT22;2002;48.812;9.180;2023-04-23T11:54:14;17.40;1.00
3976;DHT22;2002;48.812;9.180;2023-04-23T11:56:40;17.40;1.00
3976;DHT22;2002;48.812;9.180;2023-04-23T11:59:06;17.40;1.00
3976;DHT22;2002;48.812;9.180;2023-04-23T12:01:39;17.50;1.00
3976;DHT22;2002;48.812;9.180;2023-04-23T12:06:39;17.60;1.00
3976;DHT22;2002;48.812;9.180;2023-04-23T12:09:05;17.60;1.00
3976;DHT22;2002;48.812;9.180;2023-04-23T12:11:31;17.60;1.00
3976;DHT22;2002;48.812;9.180;2023-04-23T12:13:58;17.70;1.00
3976;DHT22;2002;48.812;9.180;2023-04-23T12:16:36;17.80;1.00
3976;DHT22;2002;48.812;9.180;2023-04-23T12:19:03;17.80;1.00
3976;DHT22;2002;48.812;9.180;2023-04-23T12:21:28;17.70;1.00
3976;DHT22;2002;48.812;9.180;2023-04-23T12:23:55;17.70;1.00
3976;DHT22;2002;48.812;9.180;2023-04-23T12:26:24;17.70;1.00
3976;DHT22;2002;48.812;9.180;2023-04-23T12:28:51;17.60;1.00
3976;DHT22;2002;48.812;9.180;2023-04-23T12:31:22;17.70;1.00
3976;DHT22;2002;48.812;9.180;2023-04-23T12:33:55;17.60;1.00
3976;DHT22;2002;48.812;9.180;2023-04-23T12:36:26;17.70;1.00
3976;DHT22;2002;48.812;9.180;2023-04-23T12:38:53;17.70;1.00
3976;DHT22;2002;48.812;9.180;2023-04-23T12:41:18;17.70;1.00
3976;DHT22;2002;48.812;9.180;2023-04-23T12:43:44;17.70;1.00
3976;DHT22;2002;48.812;9.180;2023-04-23T12:46:13;17.70;1.00
3976;DHT22;2002;48.812;9.180;2023-04-23T12:48:38;17.70;1.00
3976;DHT22;2002;48.812;9.180;2023-04-23T12:51:04;17.70;1.00
3976;DHT22;2002;48.812;9.180;2023-04-23T12:53:31;17.70;1.00
3976;DHT22;2002;48.812;9.180;2023-04-23T12:55:56;17.70;1.00
3976;DHT22;2002;48.812;9.180;2023-04-23T12:58:22;17.60;1.00
3976;DHT22;2002;48.812;9.180;2023-04-23T13:00:47;17.70;1.00
3976;DHT22;2002;48.812;9.180;2023-04-23T13:03:13;17.70;1.00
3976;DHT22;2002;48.812;9.180;2023-04-23T13:05:40;17.70;1.00
3976;DHT22;2002;48.812;9.180;2023-04-23T13:08:06;17.60;1.00
3976;DHT22;2002;48.812;9.180;2023-04-23T13:10:31;17.70;1.00
3976;DHT22;2002;48.812;9.180;2023-04-23T13:12:57;17.70;1.00
3976;DHT22;2002;48.812;9.180;2023-04-23T13:15:23;17.70;1.00
3976;DHT22;2002;48.812;9.180;2023-04-23T13:17:48;17.70;1.00
3976;DHT22;2002;48.812;9.180;2023-04-23T13:20:14;17.70;1.00
3976;DHT22;2002;48.812;9.180;2023-04-23T13:22:39;17.70;1.00
3976;DHT22;2002;48.812;9.180;2023-04-23T13:25:05;17.70;1.00
3976;DHT22;2002;48.812;9.180;2023-04-23T13:27:31;17.70;1.00
3976;DHT22;2002;48.812;9.180;2023-04-23T13:29:57;17.70;1.00
3976;DHT22;2002;48.812;9.180;2023-04-23T13:32:23;17.60;1.00
3976;DHT22;2002;48.812;9.180;2023-04-23T13:34:51;17.70;1.00
3976;DHT22;2002;48.812;9.180;2023-04-23T13:37:16;17.70;1.00
3976;DHT22;2002;48.812;9.180;2023-04-23T13:39:42;17.70;1.00
3976;DHT22;2002;48.812;9.180;2023-04-23T13:42:08;17.60;1.00
3976;DHT22;2002;48.812;9.180;2023-04-23T13:44:34;17.70;1.00
3976;DHT22;2002;48.812;9.180;2023-04-23T13:46:59;17.80;1.00
3976;DHT22;2002;48.812;9.180;2023-04-23T13:49:26;17.80;1.00
3976;DHT22;2002;48.812;9.180;2023-04-23T13:51:53;17.70;1.00
3976;DHT22;2002;48.812;9.180;2023-04-23T13:54:26;17.80;1.00
3976;DHT22;2002;48.812;9.180;2023-04-23T13:56:53;17.80;1.00
3976;DHT22;2002;48.812;9.180;2023-04-23T13:59:20;17.80;1.00
3976;DHT22;2002;48.812;9.180;2023-04-23T14:01:46;17.80;1.00
3976;DHT22;2002;48.812;9.180;2023-04-23T14:04:15;17.80;1.00
3976;DHT22;2002;48.812;9.180;2023-04-23T14:06:41;17.70;1.00
3976;DHT22;2002;48.812;9.180;2023-04-23T14:09:07;17.70;1.00
3976;DHT22;2002;48.812;9.180;2023-04-23T14:11:32;17.60;1.00
3976;DHT22;2002;48.812;9.180;2023-04-23T14:13:58;17.50;1.00
3976;DHT22;2002;48.812;9.180;2023-04-23T14:16:25;17.50;1.00
3976;DHT22;2002;48.812;9.180;2023-04-23T14:18:51;17.40;1.00
3976;DHT22;2002;48.812;9.180;2023-04-23T14:21:17;17.50;1.00
3976;DHT22;2002;48.812;9.180;2023-04-23T14:23:48;17.60;1.00
3976;DHT22;2002;48.812;9.180;2023-04-23T14:29:02;17.70;1.00
3976;DHT22;2002;48.812;9.180;2023-04-23T14:31:28;17.80;1.00
3976;DHT22;2002;48.812;9.180;2023-04-23T14:33:55;17.80;1.00
3976;DHT22;2002;48.812;9.180;2023-04-23T14:36:23;17.80;1.00
3976;DHT22;2002;48.812;9.180;2023-04-23T14:38:49;17.80;1.00
3976;DHT22;2002;48.812;9.180;2023-04-23T14:41:14;17.80;1.00
3976;DHT22;2002;48.812;9.180;2023-04-23T14:43:40;17.80;1.00
3976;DHT22;2002;48.812;9.180;2023-04-23T14:46:05;17.70;1.00
3976;DHT22;2002;48.812;9.180;2023-04-23T14:48:31;17.60;1.00
3976;DHT22;2002;48.812;9.180;2023-04-23T14:50:57;17.60;1.00
3976;DHT22;2002;48.812;9.180;2023-04-23T14:53:22;17.50;1.00
3976;DHT22;2002;48.812;9.180;2023-04-23T14:55:48;17.40;1.00
3976;DHT22;2002;48.812;9.180;2023-04-23T14:58:13;17.40;1.00
3976;DHT22;2002;48.812;9.180;2023-04-23T15:00:39;17.30;1.00
3976;DHT22;2002;48.812;9.180;2023-04-23T15:03:05;17.30;1.00
3976;DHT22;2002;48.812;9.180;2023-04-23T15:05:35;17.30;1.00
3976;DHT22;2002;48.812;9.180;2023-04-23T15:08:01;17.30;1.00
3976;DHT22;2002;48.812;9.180;2023-04-23T15:10:26;17.30;1.00
3976;DHT22;2002;48.812;9.180;2023-04-23T15:12:53;17.20;1.00
3976;DHT22;2002;48.812;9.180;2023-04-23T15:18:00;17.20;1.00
3976;DHT22;2002;48.812;9.180;2023-04-23T15:20:25;17.20;1.00
3976;DHT22;2002;48.812;9.180;2023-04-23T15:22:51;17.40;1.00
3976;DHT22;2002;48.812;9.180;2023-04-23T15:25:16;17.50;1.00
3976;DHT22;2002;48.812;9.180;2023-04-23T15:27:43;17.50;1.00
3976;DHT22;2002;48.812;9.180;2023-04-23T15:30:09;17.70;1.00
3976;DHT22;2002;48.812;9.180;2023-04-23T15:32:35;17.70;1.00
3976;DHT22;2002;48.812;9.180;2023-04-23T15:35:00;17.70;1.00
3976;DHT22;2002;48.812;9.180;2023-04-23T15:37:26;17.70;1.00
3976;DHT22;2002;48.812;9.180;2023-04-23T15:39:55;17.80;1.00
3976;DHT22;2002;48.812;9.180;2023-04-23T15:42:21;17.80;1.00
3976;DHT22;2002;48.812;9.180;2023-04-23T15:44:50;17.80;1.00
3976;DHT22;2002;48.812;9.180;2023-04-23T15:47:19;17.80;1.00
3976;DHT22;2002;48.812;9.180;2023-04-23T15:49:44;17.80;1.00
3976;DHT22;2002;48.812;9.180;2023-04-23T15:52:10;17.80;1.00
3976;DHT22;2002;48.812;9.180;2023-04-23T15:54:36;17.80;1.00
3976;DHT22;2002;48.812;9.180;2023-04-23T15:57:02;17.80;1.00
3976;DHT22;2002;48.812;9.180;2023-04-23T15:59:28;17.80;1.00
3976;DHT22;2002;48.812;9.180;2023-04-23T16:01:53;17.80;1.00
3976;DHT22;2002;48.812;9.180;2023-04-23T16:04:19;17.90;1.00
3976;DHT22;2002;48.812;9.180;2023-04-23T16:06:44;17.90;1.00
3976;DHT22;2002;48.812;9.180;2023-04-23T16:09:10;18.00;1.00
3976;DHT22;2002;48.812;9.180;2023-04-23T16:11:36;17.80;1.00
3976;DHT22;2002;48.812;9.180;2023-04-23T16:14:03;17.80;1.00
3976;DHT22;2002;48.812;9.180;2023-04-23T16:16:29;17.80;1.00
3976;DHT22;2002;48.812;9.180;2023-04-23T16:18:55;17.80;1.00
3976;DHT22;2002;48.812;9.180;2023-04-23T16:21:20;17.90;1.00
3976;DHT22;2002;48.812;9.180;2023-04-23T16:23:46;17.90;1.00